KCDR/CDR METAR and TAF weather

Enter ICAO airport designator
Station Type Date Time Source
KCDR METAR 2019/02/20 06:53 UTC NOAA

KCDR 200653Z AUTO 18004KT 10SM CLR M13/M15 A2971 RMK AO2 SLP120 T11281150 410561139


Station Type Date Time Source
KCDR Decoded METAR 2019/02/20 06:53 UTC NOAA

CHADRON MUNICIPAL AIRPORT, NE, United States (KCDR) 42-50N 103-06W 1010M
Feb 20, 2019 - 01:53 AM EST / 2019.02.20 0653 UTC
Wind: from the S (180 degrees) at 5 MPH (4 KT):0
Visibility: 10 mile(s):0
Sky conditions: clear
Temperature: 9.0 F (-12.8 C)
Windchill: 0 F (-18 C):1
Dew Point: 5.0 F (-15.0 C)
Relative Humidity: 83%
Pressure (altimeter): 29.71 in. Hg (1006 hPa)
ob: KCDR 200653Z AUTO 18004KT 10SM CLR M13/M15 A2971 RMK AO2 SLP120 T11281150 410561139
cycle: 7

Station Type Date Time Source
KCDR TAF 2019/02/20 06:30 UTC NOAA

TAF KCDR 200528Z 2006/2106 VRB05KT P6SM OVC050
FM201500 30012KT P6SM BKN050
FM210000 28005KT P6SM BKN050


Example: see airport list